createdAt,value
2019-03-08T00:01:48.042Z,37.28
2019-03-08T00:04:16.558Z,43.70
2019-03-08T00:06:45.071Z,43.42
2019-03-08T00:09:14.401Z,45.25
2019-03-08T00:11:43.270Z,51.48
2019-03-08T00:14:11.757Z,43.10
2019-03-08T00:16:40.238Z,41.25
2019-03-08T00:19:10.153Z,45.05
2019-03-08T00:21:37.301Z,37.25
2019-03-08T00:24:05.941Z,44.23
2019-03-08T00:26:34.405Z,44.30
2019-03-08T00:29:02.926Z,43.68
2019-03-08T00:31:31.853Z,39.55
2019-03-08T00:34:00.345Z,35.60
2019-03-08T00:36:28.857Z,32.73
2019-03-08T00:38:57.451Z,25.75
2019-03-08T00:41:25.969Z,32.98
2019-03-08T00:43:54.425Z,31.20
2019-03-08T00:46:22.909Z,27.77
2019-03-08T00:48:51.521Z,27.98
2019-03-08T00:51:20.041Z,29.40
2019-03-08T00:53:48.818Z,28.90
2019-03-08T00:56:17.913Z,28.00
2019-03-08T00:58:46.673Z,24.65
2019-03-08T01:01:15.177Z,27.95
2019-03-08T01:03:43.722Z,30.77
2019-03-08T01:06:12.613Z,31.05
2019-03-08T01:08:41.137Z,28.95
2019-03-08T01:11:09.997Z,25.25
2019-03-08T01:13:38.681Z,26.48
2019-03-08T01:16:07.166Z,20.75
2019-03-08T01:18:35.665Z,22.55
2019-03-08T01:21:05.113Z,21.12
2019-03-08T01:23:33.573Z,22.95
2019-03-08T01:26:02.105Z,23.02
2019-03-08T01:28:31.401Z,20.17
2019-03-08T01:31:00.279Z,22.30
2019-03-08T01:33:29.021Z,23.65
2019-03-08T01:35:57.517Z,25.50
2019-03-08T01:38:25.997Z,22.60
2019-03-08T01:40:54.866Z,23.57
2019-03-08T01:43:23.312Z,19.80
2019-03-08T01:45:51.889Z,19.52
2019-03-08T01:48:20.349Z,18.48
2019-03-08T01:50:49.210Z,19.07
2019-03-08T01:54:20.581Z,17.80
2019-03-08T01:56:49.125Z,19.48
2019-03-08T01:59:17.596Z,19.60
2019-03-08T02:01:46.185Z,11.65
2019-03-08T02:04:14.641Z,12.60
2019-03-08T02:06:43.261Z,15.43
2019-03-08T02:09:11.818Z,11.33
2019-03-08T02:11:40.441Z,7.90
2019-03-08T02:14:09.213Z,9.90
2019-03-08T02:16:38.533Z,8.58
2019-03-08T02:19:07.021Z,5.35
2019-03-08T02:21:35.500Z,5.12
2019-03-08T02:24:04.780Z,4.80
2019-03-08T02:26:33.844Z,5.87
2019-03-08T02:29:02.585Z,5.05
2019-03-08T02:31:31.092Z,4.58
2019-03-08T02:33:59.580Z,4.33
2019-03-08T02:36:28.440Z,4.08
2019-03-08T02:38:57.416Z,4.45
2019-03-08T02:41:26.262Z,5.47
2019-03-08T02:43:54.752Z,4.60
2019-03-08T02:47:26.028Z,6.42
2019-03-08T02:49:54.548Z,4.90
2019-03-08T02:52:23.292Z,4.80
2019-03-08T02:54:51.828Z,4.08
2019-03-08T02:57:20.276Z,4.87
2019-03-08T02:59:48.741Z,5.08
2019-03-08T03:02:17.260Z,3.83
2019-03-08T03:04:45.733Z,4.53
2019-03-08T03:07:14.948Z,4.60
2019-03-08T03:09:43.452Z,5.10
2019-03-08T03:12:11.916Z,5.70
2019-03-08T03:14:40.389Z,5.35
2019-03-08T03:17:08.887Z,5.60
2019-03-08T03:19:37.652Z,8.85
2019-03-08T03:22:06.176Z,7.55
2019-03-08T03:24:34.737Z,8.03
2019-03-08T03:27:03.221Z,9.05
2019-03-08T03:29:32.652Z,7.55
2019-03-08T03:32:01.513Z,5.12
2019-03-08T03:34:29.987Z,7.95
2019-03-08T03:36:59.099Z,6.30
2019-03-08T03:39:27.551Z,5.12
2019-03-08T03:41:56.017Z,8.78
2019-03-08T03:44:24.532Z,7.72
2019-03-08T03:46:52.980Z,6.97
2019-03-08T03:49:21.807Z,6.10
2019-03-08T03:51:50.425Z,4.15
2019-03-08T03:54:19.184Z,7.03
2019-03-08T03:56:47.643Z,4.92
2019-03-08T03:59:16.531Z,5.92
2019-03-08T04:01:47.452Z,6.83
2019-03-08T04:04:15.924Z,9.48
2019-03-08T04:06:44.871Z,6.72
2019-03-08T04:09:13.818Z,5.12
2019-03-08T04:11:42.412Z,6.80
2019-03-08T04:14:10.904Z,8.08
2019-03-08T04:16:40.635Z,8.33
2019-03-08T04:19:09.499Z,6.22
2019-03-08T04:21:37.956Z,6.53
2019-03-08T04:24:06.639Z,4.75
2019-03-08T04:26:35.603Z,10.38
2019-03-08T04:29:04.688Z,9.65
2019-03-08T04:31:33.240Z,7.05
2019-03-08T04:34:01.759Z,7.08
2019-03-08T04:36:30.443Z,7.72
2019-03-08T04:38:58.895Z,6.28
2019-03-08T04:41:27.367Z,6.12
2019-03-08T04:43:56.319Z,7.33
2019-03-08T04:46:24.815Z,7.03
2019-03-08T04:48:53.275Z,7.67
2019-03-08T04:51:21.788Z,10.05
2019-03-08T04:53:50.291Z,9.53
2019-03-08T04:56:18.751Z,11.97
2019-03-08T04:58:47.249Z,11.25
2019-03-08T05:01:15.809Z,12.60
2019-03-08T05:03:44.251Z,9.63
2019-03-08T05:06:13.043Z,7.25
2019-03-08T05:08:41.867Z,11.03
2019-03-08T05:11:10.659Z,10.03
2019-03-08T05:13:39.163Z,9.83
2019-03-08T05:16:07.824Z,11.40
2019-03-08T05:18:36.274Z,9.48
2019-03-08T05:21:04.810Z,9.88
2019-03-08T05:23:33.375Z,10.15
2019-03-08T05:26:01.828Z,7.30
2019-03-08T05:28:30.327Z,9.65
2019-03-08T05:30:59.355Z,9.08
2019-03-08T05:33:28.286Z,14.30
2019-03-08T05:35:57.135Z,11.95
2019-03-08T05:38:25.571Z,12.45
2019-03-08T05:40:54.065Z,14.75
2019-03-08T05:43:22.511Z,15.85
2019-03-08T05:45:51.047Z,8.00
2019-03-08T05:48:19.547Z,8.40
2019-03-08T05:50:48.148Z,8.65
2019-03-08T05:53:16.634Z,7.97
2019-03-08T05:55:45.115Z,10.98
2019-03-08T05:58:13.590Z,6.22
2019-03-08T06:00:42.242Z,5.45
2019-03-08T06:03:10.807Z,7.87
2019-03-08T06:05:39.830Z,6.70
2019-03-08T06:08:08.302Z,5.20
2019-03-08T06:10:37.688Z,4.67
2019-03-08T06:13:06.791Z,5.80
2019-03-08T06:15:35.288Z,6.87
2019-03-08T06:18:04.746Z,5.28
2019-03-08T06:20:33.531Z,5.97
2019-03-08T06:23:01.999Z,4.83
2019-03-08T06:25:30.639Z,4.60
2019-03-08T06:27:59.202Z,3.05
2019-03-08T06:30:27.693Z,6.40
2019-03-08T06:32:56.470Z,5.05
2019-03-08T06:35:24.978Z,3.85
2019-03-08T06:37:53.547Z,6.90
2019-03-08T06:40:22.214Z,4.57
2019-03-08T06:42:50.670Z,4.97
2019-03-08T06:45:19.126Z,3.35
2019-03-08T06:47:47.643Z,6.20
2019-03-08T06:50:16.179Z,8.63
2019-03-08T06:52:44.673Z,5.62
2019-03-08T06:55:13.306Z,6.20
2019-03-08T06:57:42.048Z,3.83
2019-03-08T07:00:19.650Z,6.10
2019-03-08T07:02:48.138Z,4.55
2019-03-08T07:05:16.601Z,5.30
2019-03-08T07:07:45.330Z,5.80
2019-03-08T07:10:13.806Z,4.08
2019-03-08T07:12:42.278Z,4.65
2019-03-08T07:15:10.898Z,2.92
2019-03-08T07:17:39.427Z,2.10
2019-03-08T07:20:48.112Z,6.10
2019-03-08T07:23:27.806Z,3.87
2019-03-08T07:26:11.880Z,4.70
2019-03-08T07:28:57.405Z,6.03
2019-03-08T07:31:29.246Z,5.15
2019-03-08T07:34:18.040Z,5.20
2019-03-08T07:37:02.547Z,4.12
2019-03-08T07:39:36.558Z,3.40
2019-03-08T07:42:11.331Z,5.08
2019-03-08T07:44:44.049Z,3.75
2019-03-08T07:48:20.039Z,3.67
2019-03-08T07:50:59.611Z,4.97
2019-03-08T07:53:33.711Z,5.62
2019-03-08T07:56:11.423Z,3.90
2019-03-08T08:00:50.490Z,3.00
2019-03-08T08:03:23.257Z,2.55
2019-03-08T08:05:58.547Z,4.37
2019-03-08T08:08:32.530Z,5.50
2019-03-08T08:11:07.093Z,3.20
2019-03-08T08:13:42.962Z,4.85
2019-03-08T08:18:19.030Z,2.53
2019-03-08T08:20:55.586Z,6.62
2019-03-08T08:23:34.379Z,4.00
2019-03-08T08:26:04.169Z,3.72
2019-03-08T08:28:56.219Z,4.87
2019-03-08T08:31:34.917Z,3.45
2019-03-08T08:34:12.781Z,3.72
2019-03-08T08:37:01.554Z,5.25
2019-03-08T08:39:45.826Z,3.33
2019-03-08T08:42:21.269Z,4.87
2019-03-08T08:45:04.394Z,1.77
2019-03-08T08:47:39.373Z,4.72
2019-03-08T08:50:14.273Z,3.87
2019-03-08T08:52:54.081Z,3.22
2019-03-08T08:55:27.905Z,2.33
2019-03-08T08:58:01.942Z,2.70
2019-03-08T09:00:35.605Z,5.97
2019-03-08T09:03:09.233Z,2.95
2019-03-08T09:05:44.677Z,5.30
2019-03-08T09:10:23.805Z,5.72
2019-03-08T09:12:57.718Z,3.33
2019-03-08T09:15:38.313Z,3.67
2019-03-08T09:18:12.014Z,3.60
2019-03-08T09:20:50.857Z,5.03
2019-03-08T09:23:43.009Z,3.08
2019-03-08T09:26:15.729Z,5.83
2019-03-08T09:28:49.370Z,10.50
2019-03-08T09:31:25.005Z,5.17
2019-03-08T09:34:59.945Z,4.97
2019-03-08T09:37:37.708Z,6.40
2019-03-08T09:40:13.232Z,4.80
2019-03-08T09:42:49.777Z,4.83
2019-03-08T09:45:27.364Z,3.33
2019-03-08T09:48:08.406Z,3.72
2019-03-08T09:50:45.140Z,4.20
2019-03-08T09:53:19.008Z,3.92
2019-03-08T09:55:53.878Z,5.78
2019-03-08T09:58:29.901Z,2.45
2019-03-08T10:01:03.590Z,5.50
2019-03-08T10:05:40.897Z,3.00
2019-03-08T10:08:15.557Z,2.98
2019-03-08T10:10:51.380Z,4.42
2019-03-08T10:13:26.920Z,2.70
2019-03-08T10:16:00.976Z,1.50
2019-03-08T10:18:40.233Z,4.47
2019-03-08T10:21:13.402Z,3.22
2019-03-08T10:23:47.152Z,5.35
2019-03-08T10:28:25.314Z,5.08
2019-03-08T10:30:58.011Z,4.90
2019-03-08T10:33:46.289Z,5.62
2019-03-08T10:36:10.532Z,6.30
2019-03-08T10:38:49.152Z,5.30
2019-03-08T10:41:54.723Z,3.27
2019-03-08T10:45:30.584Z,3.80
2019-03-08T10:50:05.772Z,2.67
2019-03-08T10:52:39.892Z,6.12
2019-03-08T10:55:19.108Z,6.47
2019-03-08T10:58:07.917Z,6.17
2019-03-08T11:00:41.816Z,4.70
2019-03-08T11:03:45.580Z,5.22
2019-03-08T11:06:23.348Z,2.30
2019-03-08T11:09:00.028Z,2.95
2019-03-08T11:11:50.660Z,2.15
2019-03-08T11:14:25.376Z,2.72
2019-03-08T11:19:08.750Z,1.52
2019-03-08T11:21:39.261Z,3.20
2019-03-08T11:24:12.879Z,4.00
2019-03-08T11:27:49.936Z,3.90
2019-03-08T11:32:25.647Z,7.70
2019-03-08T11:35:00.124Z,3.62
2019-03-08T11:37:45.317Z,7.67
2019-03-08T11:40:19.244Z,3.70
2019-03-08T11:43:11.976Z,2.47
2019-03-08T11:45:45.576Z,4.58
2019-03-08T11:48:22.040Z,6.17
2019-03-08T11:50:59.702Z,2.17
2019-03-08T11:55:41.029Z,4.62
2019-03-08T11:58:14.764Z,2.98
2019-03-08T12:01:19.183Z,3.55
2019-03-08T12:03:53.255Z,4.42
2019-03-08T12:06:29.048Z,3.33
2019-03-08T12:09:04.087Z,1.77
2019-03-08T12:11:37.716Z,3.17
2019-03-08T12:14:15.447Z,4.30
2019-03-08T12:16:49.191Z,3.67
2019-03-08T12:19:28.127Z,7.78
2019-03-08T12:22:01.064Z,3.58
2019-03-08T12:24:38.673Z,3.00
2019-03-08T12:27:13.295Z,5.08
2019-03-08T12:29:46.763Z,5.55
2019-03-08T12:32:19.451Z,3.65
2019-03-08T12:34:53.296Z,3.17
2019-03-08T12:37:32.043Z,6.90
2019-03-08T12:40:07.955Z,7.75
2019-03-08T12:42:48.843Z,6.60
2019-03-08T12:45:24.515Z,3.92
2019-03-08T12:47:58.151Z,4.15
2019-03-08T12:50:30.851Z,3.47
2019-03-08T12:53:04.379Z,2.98
2019-03-08T12:55:38.619Z,2.58
2019-03-08T12:58:43.403Z,3.50
2019-03-08T13:01:17.283Z,5.87
2019-03-08T13:03:54.714Z,2.87
2019-03-08T13:06:28.107Z,3.72
2019-03-08T13:09:02.193Z,5.10
2019-03-08T13:11:33.558Z,2.60
2019-03-08T13:13:59.678Z,3.83
2019-03-08T13:16:28.440Z,5.12
2019-03-08T13:18:56.891Z,6.65
2019-03-08T13:21:25.354Z,5.47
2019-03-08T13:23:54.103Z,7.87
2019-03-08T13:26:22.847Z,4.40
2019-03-08T13:28:51.595Z,5.05
2019-03-08T13:31:20.159Z,2.53
2019-03-08T13:33:48.623Z,4.90
2019-03-08T13:36:17.083Z,2.40
2019-03-08T13:38:45.807Z,6.50
2019-03-08T13:41:14.989Z,4.12
2019-03-08T13:43:43.561Z,2.45
2019-03-08T13:46:12.019Z,7.50
2019-03-08T13:48:40.799Z,1.17
2019-03-08T13:51:09.305Z,2.33
2019-03-08T13:53:37.772Z,3.05
2019-03-08T13:56:11.320Z,2.85
2019-03-08T13:58:47.695Z,3.00
2019-03-08T14:32:44.874Z,8.18
